KBCT

Boca Raton Airport

Boca Raton, Florida, USA
METAR KBCT 190047Z 09004KT 10SM SCT025 25/19 A3008
Observed Flight Rules
Nov-19 @ 00:47 UTC (57 minutes ago) Visual Flight Rules
Wind Visibility Clouds
90° at 4 knots 10 miles
  • Scattered at 2,500' AGL
Temperatures Readings
Current 25°C / 77°F
Dewpoint 19°C / 66°F
Humidity 69%
Altimeter 30.08" Hg
Pressure 1019 hPa
Elevation 4
METAR KBCT 190047Z 09004KT 10SM SCT025 25/19 A3008
Observed Flight Rules
Nov-19 @ 00:47 UTC
(57 minutes ago)
VFR
Wind Visibility
90° at 4 knots 10 miles
Clouds
  • Scattered at 2,500' AGL
Temperature Dewpoint
25°C / 77°F 19°C / 66°F
Humidity Altimeter Pressure
69% 30.08" Hg 1019 hPa